Kingston, Nevada
Current Conditions -  °F | °C
As of 5:53 PM on Tuesday 21 Oct 2014 (Local Time) from KLOL Reporting Station
Clear Clear  
Wind Chill: 57°   Ceiling: Unl
Heat Index: 57°   Visibility: 10mi
Dew Point: 22°   Wind: 6mph
Humidity: 26%   Direction: 310°NW
Pressure: 30.04"   Gusts: NA
Location:  39.7407°N, 117.085°W
Report Text: KLOL 220053Z AUTO 31005KT 10SM CLR 14/M06 A3004 RMK AO2 SLP164 T01391056
Loading
Personal Weather Stations






























Interactive Weather Map
Tropical Storm Tracking
New forecast layout! Learn more

10-Day Weather Forecast

Advertisements
Track Severe Weather on mobile